TimeCDT,TemperatureF,Dew PointF,Humidity,Sea Level PressureIn,VisibilityMPH,Wind Direction,Wind SpeedMPH,Gust SpeedMPH,PrecipitationIn,Events,Conditions,WindDirDegrees,DateUTC
12:53 AM,55.0,48.9,80,29.98,10.0,South,3.5,-,N/A,,Clear,190,2012-10-22 05:53:00
1:53 AM,53.1,48.9,86,29.97,8.0,Calm,Calm,-,N/A,,Clear,0,2012-10-22 06:53:00
2:53 AM,52.0,48.0,86,29.97,8.0,Calm,Calm,-,N/A,,Clear,0,2012-10-22 07:53:00
3:53 AM,48.0,45.0,89,29.97,4.0,Calm,Calm,-,N/A,,Clear,0,2012-10-22 08:53:00
4:53 AM,46.9,45.0,93,29.96,6.0,ESE,3.5,-,N/A,,Clear,120,2012-10-22 09:53:00
5:53 AM,48.0,46.0,93,29.96,5.0,SE,3.5,-,N/A,,Clear,130,2012-10-22 10:53:00
7:53 AM,51.1,48.0,89,29.97,5.0,SE,3.5,-,N/A,,Clear,140,2012-10-22 12:53:00
8:53 AM,55.9,51.1,84,29.98,6.0,South,4.6,-,N/A,,Haze,170,2012-10-22 13:53:00
9:53 AM,60.1,53.1,78,29.97,9.0,SSE,6.9,-,N/A,,Mostly Cloudy,160,2012-10-22 14:53:00
10:48 AM,60.8,53.6,77,29.97,9.0,East,3.5,-,N/A,,Overcast,100,2012-10-22 15:48:00
10:53 AM,61.0,54.0,78,29.97,9.0,ESE,4.6,-,N/A,,Overcast,120,2012-10-22 15:53:00
11:07 AM,62.6,53.6,72,29.96,9.0,ESE,3.5,-,N/A,,Overcast,110,2012-10-22 16:07:00
12:12 PM,59.0,55.4,88,29.95,8.0,SSE,4.6,-,0.01,,Overcast,150,2012-10-22 17:12:00
12:51 PM,59.0,55.4,88,29.87,4.0,ENE,10.4,-,0.01,Rain,Light Rain,70,2012-10-22 17:51:00
12:53 PM,59.0,55.9,90,29.88,4.0,East,11.5,-,0.01,Rain,Light Rain,80,2012-10-22 17:53:00
1:14 PM,57.2,55.4,94,29.91,4.0,SSE,4.6,-,0.00,,Overcast,150,2012-10-22 18:14:00
1:24 PM,59.0,55.4,88,29.95,5.0,SW,11.5,-,0.00,,Overcast,230,2012-10-22 18:24:00
1:41 PM,60.8,55.4,82,29.92,6.0,Calm,Calm,-,0.00,,Haze,0,2012-10-22 18:41:00
1:48 PM,60.8,55.4,82,29.92,7.0,Calm,Calm,-,0.00,,Mostly Cloudy,0,2012-10-22 18:48:00
1:53 PM,61.0,55.9,83,29.92,7.0,ESE,3.5,-,0.00,,Mostly Cloudy,110,2012-10-22 18:53:00
2:38 PM,62.6,57.2,82,29.92,6.0,South,6.9,-,N/A,,Mostly Cloudy,180,2012-10-22 19:38:00
2:53 PM,61.0,57.0,87,29.93,6.0,South,4.6,-,N/A,,Mostly Cloudy,190,2012-10-22 19:53:00
3:53 PM,62.1,57.9,86,29.92,6.0,Calm,Calm,-,0.00,,Overcast,0,2012-10-22 20:53:00
4:31 PM,60.8,59.0,94,29.90,3.0,ENE,4.6,-,0.01,Rain,Light Rain,60,2012-10-22 21:31:00
4:53 PM,61.0,57.9,90,29.90,2.5,East,6.9,-,0.01,,Overcast,90,2012-10-22 21:53:00
5:17 PM,60.8,57.2,88,29.88,1.5,ESE,9.2,-,0.01,,Overcast,110,2012-10-22 22:17:00
5:38 PM,60.8,57.2,88,29.89,0.8,SE,4.6,-,0.02,Rain,Light Rain,130,2012-10-22 22:38:00
5:53 PM,59.0,57.9,96,29.91,1.0,ENE,4.6,-,0.03,Rain,Light Rain,70,2012-10-22 22:53:00
6:00 PM,59.0,57.2,94,29.90,1.2,ENE,5.8,-,0.00,Rain,Light Rain,70,2012-10-22 23:00:00
6:31 PM,57.2,55.4,94,29.91,0.8,North,6.9,-,0.06,Rain,Light Rain,10,2012-10-22 23:31:00
6:46 PM,57.2,55.4,94,29.91,0.8,ESE,6.9,-,0.14,Rain,Heavy Rain,110,2012-10-22 23:46:00
6:53 PM,57.9,55.9,93,29.91,0.8,East,5.8,-,0.17,Rain,Heavy Rain,100,2012-10-22 23:53:00
7:53 PM,57.9,55.9,93,29.91,2.0,NNE,3.5,-,0.13,,Overcast,30,2012-10-23 00:53:00
8:44 PM,57.2,55.4,94,29.90,2.0,Calm,Calm,-,N/A,,Overcast,0,2012-10-23 01:44:00
8:53 PM,57.9,55.9,93,29.91,1.8,NNW,5.8,-,N/A,,Overcast,330,2012-10-23 01:53:00
9:01 PM,57.2,55.4,94,29.90,2.0,NW,3.5,-,N/A,,Overcast,310,2012-10-23 02:01:00
9:21 PM,57.2,55.4,94,29.91,2.0,North,4.6,-,N/A,,Overcast,360,2012-10-23 02:21:00
9:53 PM,57.9,55.9,93,29.91,1.8,NNE,3.5,-,N/A,,Overcast,20,2012-10-23 02:53:00
10:10 PM,57.2,55.4,94,29.92,1.8,NNE,3.5,-,N/A,,Overcast,20,2012-10-23 03:10:00
10:50 PM,57.2,55.4,94,29.93,0.5,Calm,Calm,-,N/A,Fog,Fog,0,2012-10-23 03:50:00
10:53 PM,57.9,55.9,93,29.93,0.5,Calm,Calm,-,N/A,Fog,Fog,0,2012-10-23 03:53:00
11:07 PM,57.2,57.2,100,29.93,0.2,Calm,Calm,-,N/A,Fog,Fog,0,2012-10-23 04:07:00
11:39 PM,57.2,55.4,94,29.93,1.0,North,4.6,-,N/A,,Mist,360,2012-10-23 04:39:00